Impacts TAF Board
For situational awareness. Not to be used for flight planning purposes.
IDs:

KEET - Alabaster/Shelby Cnt, AL, US

Issued at 0520 UTC 23 Oct 2018
Updated at 0740 UTC 23 Oct 2018
Potential Impact None Slight Moderate High
Time0653Z 23/08Z 23/09Z 23/10Z 23/11Z 23/12Z 23/13Z 23/14Z 23/15Z 23/16Z 23/17Z 23/18Z 23/19Z 23/20Z>>
Type OBS PRVL PRVL PRVL PRVL PRVL PRVL PRVL PRVL PRVL PRVL PRVL PRVL PRVL
VIS 10 >6 >6 >6 >6 >6 >6 >6 >6 >6 >6 >6 >6 >6
CIG -- 250 250 250 250 250 250 250 250 250 250 250 250 250
Cover CLR BKN BKN BKN BKN BKN BKN BKN BKN BKN BKN BKN BKN BKN
FltCat VFR VFR VFR VFR VFR VFR VFR VFR VFR VFR VFR VFR VFR VFR
WX -- -- -- -- -- -- -- -- -- -- -- -- -- --
WDir VRB VRB VRB VRB VRB VRB VRB VRB 40 40 40 40 40 40
WSpd 0 0 0 0 0 0 0 0 4 4 4 4 4 4
WGst -- -- -- -- -- -- -- -- -- -- -- -- -- --
Raw TAF
KEET 230520Z 2306/2406 00000KT P6SM BKN250
  FM231500 04004KT P6SM BKN250


Raw METAR
KEET 230653Z AUTO 00000KT 10SM CLR 12/09 A3020 RMK AO2 SLP224 T01170089
KEET 230553Z AUTO 00000KT 10SM CLR 12/09 A3021 RMK AO2 SLP225 T01170089 10150 20117 402060050 58005
KEET 230453Z AUTO 00000KT 8SM CLR 12/09 A3022 RMK AO2 SLP229 T01170089

METAR Board
Radar Display
Forecast Discussion
For situational awareness. Not to be used for flight planning purposes.